Time;durP1;ratioP1;P1;durP2;ratioP2;P2;SDS_P1;SDS_P2;PMS_P1;PMS_P2;Temp;Humidity;BMP_temperature;BMP_pressure;BME280_temperature;BME280_humidity;BME280_pressure;Samples;Min_cycle;Max_cycle;Signal;HPM_P1;HPM_P2
2024/03/08 00:01:06;;;;;;;26.88;14.98;;;;;6.80;98372.00;;;;4864270;29;20044;-65
2024/03/08 00:03:34;;;;;;;25.27;16.15;;;;;6.80;98379.00;;;;4862307;29;20502;-65
2024/03/08 00:06:01;;;;;;;24.65;15.13;;;;;6.80;98368.00;;;;4862786;29;20148;-65
2024/03/08 00:08:28;;;;;;;22.23;14.63;;;;;6.70;98374.00;;;;4846880;29;20132;-65
2024/03/08 00:10:55;;;;;;;24.45;15.77;;;;;6.70;98365.00;;;;4863537;29;20121;-66
2024/03/08 00:13:21;;;;;;;24.52;14.73;;;;;6.70;98365.00;;;;4863545;29;20041;-65
2024/03/08 00:15:48;;;;;;;26.08;16.13;;;;;6.70;98357.00;;;;4863496;29;20052;-65
2024/03/08 00:18:14;;;;;;;25.25;15.77;;;;;6.70;98365.00;;;;4863494;29;20045;-65
2024/03/08 00:20:41;;;;;;;26.60;15.98;;;;;6.60;98359.00;;;;4861898;29;20071;-65
2024/03/08 00:23:07;;;;;;;22.75;15.05;;;;;6.60;98363.00;;;;4863226;29;20131;-65
2024/03/08 00:25:34;;;;;;;26.33;16.33;;;;;6.60;98354.00;;;;4861921;29;20051;-65
2024/03/08 00:28:01;;;;;;;27.27;15.95;;;;;6.60;98353.00;;;;4863650;29;20053;-66
2024/03/08 00:30:27;;;;;;;26.30;15.40;;;;;6.60;98352.00;;;;4863237;29;20049;-65
2024/03/08 00:32:54;;;;;;;24.73;15.48;;;;;6.50;98344.00;;;;4862914;29;20120;-65
2024/03/08 00:35:20;;;;;;;27.35;16.05;;;;;6.40;98347.00;;;;4863173;29;20427;-65
2024/03/08 00:37:47;;;;;;;24.27;15.88;;;;;6.40;98341.00;;;;4862132;29;20050;-65
2024/03/08 00:40:14;;;;;;;23.52;14.82;;;;;6.40;98345.00;;;;4861807;29;20049;-65
2024/03/08 00:42:42;;;;;;;21.52;14.68;;;;;6.40;98349.00;;;;4863171;29;20124;-65
2024/03/08 00:45:10;;;;;;;26.15;16.08;;;;;6.40;98341.00;;;;4862798;29;20056;-65
2024/03/08 00:47:37;;;;;;;27.13;16.35;;;;;6.40;98338.00;;;;4863379;29;20049;-65
2024/03/08 00:50:04;;;;;;;26.08;16.27;;;;;6.30;98331.00;;;;4864440;29;20049;-65
2024/03/08 00:52:31;;;;;;;24.20;15.18;;;;;6.30;98329.00;;;;4862825;29;20042;-66
2024/03/08 00:54:58;;;;;;;24.58;14.95;;;;;6.20;98334.00;;;;4863000;29;20132;-65
2024/03/08 00:57:24;;;;;;;25.83;16.95;;;;;6.20;98333.00;;;;4861131;29;20475;-65
2024/03/08 00:59:51;;;;;;;26.33;14.93;;;;;6.20;98328.00;;;;4862359;29;20053;-65
2024/03/08 01:02:18;;;;;;;23.17;15.68;;;;;6.20;98324.00;;;;4862291;29;20105;-65
2024/03/08 01:04:47;;;;;;;26.00;15.77;;;;;6.20;98327.00;;;;4861086;29;20410;-65
2024/03/08 01:07:13;;;;;;;24.08;15.57;;;;;6.20;98326.00;;;;4863046;29;20106;-65
2024/03/08 01:09:40;;;;;;;24.70;15.93;;;;;6.30;98325.00;;;;4862730;29;20054;-65
2024/03/08 01:12:07;;;;;;;24.08;15.43;;;;;6.20;98315.00;;;;4862253;29;20076;-65
2024/03/08 01:14:34;;;;;;;24.90;15.23;;;;;6.20;98319.00;;;;4862231;29;20467;-65
2024/03/08 01:17:00;;;;;;;26.30;16.00;;;;;6.10;98319.00;;;;4862375;29;20410;-65
2024/03/08 01:19:27;;;;;;;29.67;16.50;;;;;6.10;98323.00;;;;4862038;29;20054;-65
2024/03/08 01:21:56;;;;;;;24.13;16.23;;;;;6.10;98315.00;;;;4876924;29;20053;-65
2024/03/08 01:24:23;;;;;;;26.23;16.70;;;;;6.10;98306.00;;;;4862025;29;20140;-65
2024/03/08 01:26:50;;;;;;;27.30;17.40;;;;;6.10;98313.00;;;;4862081;29;20077;-65
2024/03/08 01:29:17;;;;;;;27.23;16.42;;;;;6.10;98308.00;;;;4861356;29;20053;-65
2024/03/08 01:31:43;;;;;;;24.52;16.85;;;;;6.10;98299.00;;;;4860713;29;20049;-65
2024/03/08 01:34:10;;;;;;;26.83;16.48;;;;;6.00;98291.00;;;;4862180;29;20053;-65
2024/03/08 01:36:40;;;;;;;26.30;16.88;;;;;6.00;98295.00;;;;4861947;29;20086;-65
2024/03/08 01:39:07;;;;;;;25.52;15.43;;;;;6.10;98296.00;;;;4860554;29;20418;-65
2024/03/08 01:41:35;;;;;;;26.08;16.55;;;;;6.00;98303.00;;;;4861475;29;20053;-65
2024/03/08 01:44:03;;;;;;;26.73;15.90;;;;;6.00;98291.00;;;;4860169;29;20148;-65
2024/03/08 01:46:30;;;;;;;27.08;16.20;;;;;6.00;98295.00;;;;4861484;29;20057;-65
2024/03/08 01:48:58;;;;;;;28.45;16.77;;;;;6.00;98280.00;;;;4860852;29;20049;-65
2024/03/08 01:51:24;;;;;;;27.65;17.05;;;;;6.00;98282.00;;;;4861383;29;20457;-65
2024/03/08 01:53:51;;;;;;;27.77;16.83;;;;;5.90;98274.00;;;;4860408;29;20395;-65
2024/03/08 01:56:18;;;;;;;24.70;15.43;;;;;5.90;98267.00;;;;4860217;29;20055;-65
2024/03/08 01:58:47;;;;;;;28.15;17.38;;;;;5.80;98271.00;;;;4861349;29;20053;-65
2024/03/08 02:01:18;;;;;;;23.27;15.73;;;;;5.80;98265.00;;;;4861942;29;20491;-65
2024/03/08 02:03:46;;;;;;;30.05;16.88;;;;;5.70;98263.00;;;;4861271;29;20050;-66
2024/03/08 02:06:14;;;;;;;24.95;15.90;;;;;5.80;98257.00;;;;4861291;29;20064;-65
2024/03/08 02:08:44;;;;;;;24.08;15.02;;;;;5.70;98255.00;;;;4861453;29;20406;-65
2024/03/08 02:11:11;;;;;;;24.38;16.25;;;;;5.60;98254.00;;;;4844748;29;20049;-65
2024/03/08 02:13:38;;;;;;;29.83;17.27;;;;;5.60;98248.00;;;;4859896;29;20050;-65
2024/03/08 02:16:07;;;;;;;26.73;16.48;;;;;5.70;98249.00;;;;4875645;29;20499;-65
2024/03/08 02:18:34;;;;;;;24.85;16.15;;;;;5.70;98241.00;;;;4859880;29;20053;-65
2024/03/08 02:21:03;;;;;;;25.60;15.88;;;;;5.60;98240.00;;;;4859929;29;20041;-65
2024/03/08 02:23:30;;;;;;;26.13;15.88;;;;;5.60;98242.00;;;;4861415;29;20128;-65
2024/03/08 02:25:57;;;;;;;24.17;15.05;;;;;5.60;98233.00;;;;4861012;29;20132;-65
2024/03/08 02:28:28;;;;;;;25.98;16.00;;;;;5.50;98221.00;;;;4861164;29;20045;-65
2024/03/08 02:30:55;;;;;;;25.55;15.98;;;;;5.50;98224.00;;;;4859917;29;20506;-65
2024/03/08 02:33:25;;;;;;;25.52;15.13;;;;;5.40;98224.00;;;;4860083;29;20498;-65
2024/03/08 02:35:52;;;;;;;25.05;16.23;;;;;5.30;98219.00;;;;4859611;29;20066;-65
2024/03/08 02:38:21;;;;;;;26.65;15.05;;;;;5.30;98217.00;;;;4859648;29;20060;-65
2024/03/08 02:40:50;;;;;;;26.73;16.77;;;;;5.20;98211.00;;;;4861561;29;20090;-65
2024/03/08 02:43:18;;;;;;;27.33;17.02;;;;;5.20;98224.00;;;;4861200;29;20080;-65
2024/03/08 02:45:45;;;;;;;30.45;17.27;;;;;5.20;98218.00;;;;4861622;29;20053;-65
2024/03/08 02:48:13;;;;;;;23.67;15.50;;;;;5.20;98220.00;;;;4861082;29;20049;-65
2024/03/08 02:50:40;;;;;;;29.73;16.42;;;;;5.20;98216.00;;;;4859642;29;20057;-65
2024/03/08 02:53:07;;;;;;;27.17;16.27;;;;;5.20;98209.00;;;;4862658;29;20137;-65
2024/03/08 02:55:35;;;;;;;24.90;15.82;;;;;5.20;98210.00;;;;4864421;29;20050;-65
2024/03/08 02:58:03;;;;;;;28.98;16.08;;;;;5.20;98206.00;;;;4863360;29;20431;-66
2024/03/08 03:00:30;;;;;;;24.35;15.10;;;;;5.10;98207.00;;;;4864546;29;20551;-65
2024/03/08 03:02:57;;;;;;;28.20;16.25;;;;;5.10;98199.00;;;;4864519;29;20049;-65
2024/03/08 03:05:24;;;;;;;25.40;15.73;;;;;5.10;98207.00;;;;4864321;29;20491;-65
2024/03/08 03:07:51;;;;;;;24.65;15.93;;;;;5.10;98202.00;;;;4863328;29;20495;-65
2024/03/08 03:10:18;;;;;;;23.17;14.98;;;;;5.10;98192.00;;;;4863139;29;20077;-65
2024/03/08 03:12:45;;;;;;;27.42;16.55;;;;;5.10;98197.00;;;;4864115;29;20409;-65
2024/03/08 03:15:13;;;;;;;28.42;16.77;;;;;5.00;98199.00;;;;4863126;29;20559;-65
2024/03/08 03:17:40;;;;;;;29.20;16.90;;;;;5.00;98195.00;;;;4863278;29;20056;-65
2024/03/08 03:20:13;;;;;;;26.85;17.15;;;;;5.00;98193.00;;;;4864045;29;20053;-65
2024/03/08 03:22:41;;;;;;;27.73;16.13;;;;;5.00;98188.00;;;;4864326;29;20053;-65
2024/03/08 03:25:09;;;;;;;26.50;16.75;;;;;5.00;98190.00;;;;4862671;29;20073;-65
2024/03/08 03:27:36;;;;;;;23.98;16.65;;;;;4.90;98183.00;;;;4863949;29;20073;-65
2024/03/08 03:30:20;;;;;;;26.65;16.40;;;;;4.90;98186.00;;;;4878806;29;20080;-66
2024/03/08 03:32:49;;;;;;;27.50;16.67;;;;;4.90;98183.00;;;;4864321;29;20069;-66
2024/03/08 03:35:20;;;;;;;28.10;16.08;;;;;5.00;98191.00;;;;4862442;29;20121;-66
2024/03/08 03:40:34;;;;;;;30.38;16.63;;;;;4.90;98169.00;;;;4878149;29;20057;-66
2024/03/08 03:43:02;;;;;;;31.50;15.63;;;;;4.70;98180.00;;;;4863776;29;20050;-67
2024/03/08 03:45:29;;;;;;;26.77;16.23;;;;;4.70;98173.00;;;;4863649;29;20041;-65
2024/03/08 03:47:56;;;;;;;32.70;17.15;;;;;4.70;98172.00;;;;4863541;29;20045;-65
2024/03/08 03:50:23;;;;;;;27.42;16.38;;;;;4.70;98167.00;;;;4863601;29;20045;-65
2024/03/08 03:52:50;;;;;;;29.02;17.88;;;;;4.70;98162.00;;;;4877641;29;20102;-66
2024/03/08 03:55:16;;;;;;;26.25;16.33;;;;;4.60;98161.00;;;;4864239;29;20472;-66
2024/03/08 03:57:45;;;;;;;27.52;16.70;;;;;4.60;98166.00;;;;4862264;29;20490;-66
2024/03/08 04:00:12;;;;;;;26.60;16.55;;;;;4.70;98156.00;;;;4864118;29;20129;-65
2024/03/08 04:02:42;;;;;;;29.35;16.55;;;;;4.60;98159.00;;;;4863367;29;20468;-65
2024/03/08 04:05:10;;;;;;;25.83;16.02;;;;;4.50;98161.00;;;;4861934;29;20053;-65
2024/03/08 04:07:37;;;;;;;28.63;17.70;;;;;4.50;98156.00;;;;4861998;29;20049;-65
2024/03/08 04:10:06;;;;;;;27.83;16.73;;;;;4.60;98143.00;;;;4863163;29;20045;-65
2024/03/08 04:12:33;;;;;;;29.52;17.70;;;;;4.60;98156.00;;;;4863682;29;20121;-65
2024/03/08 04:15:00;;;;;;;29.98;17.85;;;;;4.60;98153.00;;;;4862914;29;20050;-65
2024/03/08 04:17:27;;;;;;;27.25;15.35;;;;;4.50;98156.00;;;;4846539;29;20527;-65
2024/03/08 04:19:54;;;;;;;23.70;14.65;;;;;4.50;98149.00;;;;4863332;29;20406;-65
2024/03/08 04:22:21;;;;;;;24.20;15.05;;;;;4.50;98156.00;;;;4863032;29;20046;-66
2024/03/08 04:24:47;;;;;;;25.98;15.68;;;;;4.40;98152.00;;;;4862919;29;20049;-66
2024/03/08 04:27:14;;;;;;;25.00;15.43;;;;;4.40;98147.00;;;;4862986;29;20090;-65
2024/03/08 04:29:41;;;;;;;25.83;16.17;;;;;4.30;98142.00;;;;4863692;29;20045;-65
2024/03/08 04:32:10;;;;;;;26.98;16.33;;;;;4.30;98149.00;;;;4861747;29;20535;-65
2024/03/08 04:34:37;;;;;;;27.10;16.08;;;;;4.30;98144.00;;;;4862667;29;20448;-66
2024/03/08 04:37:04;;;;;;;28.42;16.27;;;;;4.30;98142.00;;;;4862884;29;20128;-65
2024/03/08 04:39:31;;;;;;;27.40;16.48;;;;;4.30;98137.00;;;;4863288;29;20053;-66
2024/03/08 04:42:03;;;;;;;27.38;16.50;;;;;4.20;98148.00;;;;4876800;29;20065;-66
2024/03/08 04:44:33;;;;;;;26.00;15.73;;;;;4.20;98139.00;;;;4862307;29;20045;-65
2024/03/08 04:47:00;;;;;;;29.10;16.20;;;;;4.20;98135.00;;;;4861526;29;20054;-65
2024/03/08 04:49:28;;;;;;;26.38;15.65;;;;;4.10;98127.00;;;;4861870;29;20049;-65
2024/03/08 04:51:55;;;;;;;27.30;17.05;;;;;4.10;98131.00;;;;4862654;29;20546;-66
2024/03/08 04:54:21;;;;;;;26.85;16.45;;;;;4.10;98120.00;;;;4862473;29;20135;-66
2024/03/08 04:56:48;;;;;;;21.83;15.05;;;;;4.00;98129.00;;;;4862645;29;20407;-64
2024/03/08 04:59:15;;;;;;;26.42;15.15;;;;;4.00;98130.00;;;;4861106;29;20057;-64
2024/03/08 05:01:41;;;;;;;24.73;15.73;;;;;4.00;98128.00;;;;4862377;29;20057;-64
2024/03/08 05:04:08;;;;;;;26.20;15.45;;;;;4.10;98124.00;;;;4862534;29;20089;-64
2024/03/08 05:06:36;;;;;;;25.65;15.38;;;;;4.10;98125.00;;;;4876678;29;20061;-64
2024/03/08 05:09:13;;;;;;;25.77;14.90;;;;;4.00;98119.00;;;;4862030;29;20053;-64
2024/03/08 05:11:40;;;;;;;27.00;16.05;;;;;4.10;98119.00;;;;4860805;29;20054;-64
2024/03/08 05:14:07;;;;;;;26.50;15.60;;;;;4.00;98126.00;;;;4862176;29;20114;-65
2024/03/08 05:16:34;;;;;;;24.63;15.98;;;;;4.00;98122.00;;;;4862364;29;20046;-64
2024/03/08 05:19:00;;;;;;;27.92;15.75;;;;;4.00;98126.00;;;;4860988;29;20046;-64
2024/03/08 05:21:28;;;;;;;25.88;15.77;;;;;4.00;98125.00;;;;4860913;29;20079;-64
2024/03/08 05:23:55;;;;;;;27.92;15.80;;;;;3.90;98120.00;;;;4862203;29;20057;-64
2024/03/08 05:26:22;;;;;;;25.08;15.23;;;;;3.90;98122.00;;;;4862230;29;20045;-64
2024/03/08 05:28:48;;;;;;;28.23;16.15;;;;;3.90;98124.00;;;;4860829;29;20056;-64
2024/03/08 05:31:22;;;;;;;29.83;16.73;;;;;3.90;98126.00;;;;4861003;29;20061;-64
2024/03/08 05:33:50;;;;;;;26.25;15.90;;;;;3.90;98118.00;;;;4860463;29;20056;-64
2024/03/08 05:36:16;;;;;;;24.48;14.73;;;;;3.80;98111.00;;;;4860849;29;20045;-65
2024/03/08 05:38:43;;;;;;;27.25;16.52;;;;;3.70;98111.00;;;;4862249;29;20203;-64
2024/03/08 05:41:11;;;;;;;29.13;16.65;;;;;3.70;98112.00;;;;4862050;29;20049;-64
2024/03/08 05:43:40;;;;;;;31.52;16.85;;;;;3.70;98113.00;;;;4860820;29;20086;-65
2024/03/08 05:46:07;;;;;;;31.98;16.60;;;;;3.60;98113.00;;;;4876256;29;20128;-64
2024/03/08 05:48:33;;;;;;;26.33;15.80;;;;;3.70;98113.00;;;;4861580;29;20053;-64
2024/03/08 05:51:01;;;;;;;27.67;16.33;;;;;3.60;98096.00;;;;4861536;29;20056;-63
2024/03/08 05:53:32;;;;;;;26.92;17.27;;;;;3.60;98099.00;;;;4861776;29;20106;-65
2024/03/08 05:55:58;;;;;;;27.40;15.98;;;;;3.60;98098.00;;;;4860315;29;20144;-65
2024/03/08 05:58:26;;;;;;;26.88;16.60;;;;;3.60;98113.00;;;;4861934;29;20053;-65
2024/03/08 06:00:52;;;;;;;28.08;15.98;;;;;3.70;98109.00;;;;4862022;29;20049;-64
2024/03/08 06:03:21;;;;;;;26.10;16.75;;;;;3.70;98105.00;;;;4860191;29;20495;-64
2024/03/08 06:05:49;;;;;;;26.08;16.05;;;;;3.70;98114.00;;;;4844672;29;20041;-65
2024/03/08 06:08:16;;;;;;;32.50;19.73;;;;;3.70;98104.00;;;;4860135;29;20054;-64
2024/03/08 06:10:43;;;;;;;29.42;17.25;;;;;3.70;98111.00;;;;4861460;29;20050;-65
2024/03/08 06:13:12;;;;;;;25.02;15.90;;;;;3.70;98103.00;;;;4861106;29;20045;-65
2024/03/08 06:15:39;;;;;;;26.27;16.20;;;;;3.70;98107.00;;;;4862131;29;20050;-65
2024/03/08 06:18:06;;;;;;;26.25;15.23;;;;;3.70;98100.00;;;;4861521;29;20049;-65
2024/03/08 06:20:33;;;;;;;29.73;17.02;;;;;3.80;98096.00;;;;4861394;29;20050;-65
2024/03/08 06:23:01;;;;;;;25.52;16.05;;;;;3.80;98101.00;;;;4859799;29;20050;-65
2024/03/08 06:25:28;;;;;;;26.58;15.60;;;;;3.80;98093.00;;;;4859982;29;20081;-65
2024/03/08 06:27:54;;;;;;;25.50;15.27;;;;;3.80;98096.00;;;;4864470;29;20450;-65
2024/03/08 06:30:21;;;;;;;28.92;16.58;;;;;3.80;98094.00;;;;4867311;29;20060;-65
2024/03/08 06:32:48;;;;;;;24.58;16.13;;;;;3.90;98102.00;;;;4867242;29;20586;-65
2024/03/08 06:35:15;;;;;;;25.35;15.43;;;;;4.00;98101.00;;;;4865854;29;20061;-65
2024/03/08 06:37:44;;;;;;;28.20;17.70;;;;;4.00;98098.00;;;;4865849;29;20057;-65
2024/03/08 06:40:13;;;;;;;30.33;17.92;;;;;4.20;98097.00;;;;4867749;29;20394;-65
2024/03/08 06:42:41;;;;;;;31.52;18.30;;;;;4.20;98098.00;;;;4866221;29;20045;-65
2024/03/08 06:45:09;;;;;;;26.42;15.90;;;;;4.30;98106.00;;;;4867131;29;20049;-65
2024/03/08 06:47:36;;;;;;;26.85;16.27;;;;;4.40;98093.00;;;;4866139;29;20057;-65
2024/03/08 06:50:04;;;;;;;27.38;15.98;;;;;4.50;98096.00;;;;4867199;29;20053;-65
2024/03/08 06:52:31;;;;;;;24.95;15.73;;;;;4.40;98095.00;;;;4866977;29;20048;-65
2024/03/08 06:54:57;;;;;;;27.17;16.45;;;;;4.40;98095.00;;;;4865952;29;20059;-65
2024/03/08 06:57:24;;;;;;;24.67;15.63;;;;;4.50;98099.00;;;;4867021;29;20046;-67
2024/03/08 06:59:52;;;;;;;31.63;16.83;;;;;4.60;98105.00;;;;4868043;29;20046;-67
2024/03/08 07:02:19;;;;;;;27.55;16.05;;;;;4.50;98098.00;;;;4867555;29;20384;-68
2024/03/08 07:04:45;;;;;;;28.20;16.55;;;;;4.60;98095.00;;;;4850187;29;20091;-67
2024/03/08 07:07:12;;;;;;;26.50;15.40;;;;;4.60;98097.00;;;;4866929;29;20044;-68
2024/03/08 07:09:38;;;;;;;26.48;16.02;;;;;4.60;98084.00;;;;4866968;29;20129;-67
2024/03/08 07:12:07;;;;;;;25.17;15.52;;;;;4.70;98087.00;;;;4866945;29;20069;-68
2024/03/08 07:14:33;;;;;;;27.08;16.40;;;;;4.70;98081.00;;;;4866535;29;20054;-67
2024/03/08 07:17:00;;;;;;;25.95;15.70;;;;;4.60;98075.00;;;;4866836;29;20053;-68
2024/03/08 07:19:30;;;;;;;28.35;16.08;;;;;4.80;98087.00;;;;4867592;29;20049;-68
2024/03/08 07:21:57;;;;;;;26.60;17.08;;;;;4.80;98076.00;;;;4867459;29;20387;-69
2024/03/08 07:27:09;;;;;;;26.05;16.77;;;;;4.90;98071.00;;;;4867117;29;20431;-68
2024/03/08 07:29:35;;;;;;;27.10;16.65;;;;;5.00;98080.00;;;;4866124;29;20495;-67
2024/03/08 07:32:18;;;;;;;26.90;16.85;;;;;5.10;98071.00;;;;4866647;29;20049;-68
2024/03/08 07:34:44;;;;;;;26.85;16.40;;;;;5.20;98078.00;;;;4866669;29;20078;-67
2024/03/08 07:37:11;;;;;;;29.63;17.35;;;;;5.30;98079.00;;;;4865583;29;20057;-68
2024/03/08 07:39:40;;;;;;;29.88;17.35;;;;;5.30;98070.00;;;;4864742;29;20049;-69
2024/03/08 07:42:07;;;;;;;24.27;15.30;;;;;5.30;98071.00;;;;4864250;29;20046;-69
2024/03/08 07:44:34;;;;;;;28.88;17.80;;;;;5.40;98066.00;;;;4863626;29;20046;-68
2024/03/08 07:47:00;;;;;;;25.92;17.42;;;;;5.50;98072.00;;;;4863668;29;20086;-67
2024/03/08 07:49:27;;;;;;;25.55;15.93;;;;;5.60;98075.00;;;;4863969;29;20465;-68
2024/03/08 07:51:53;;;;;;;30.00;17.27;;;;;5.70;98076.00;;;;4862782;29;20134;-67
2024/03/08 07:54:20;;;;;;;27.90;16.60;;;;;5.80;98075.00;;;;4862169;29;20064;-67
2024/03/08 07:56:47;;;;;;;28.05;16.73;;;;;5.90;98073.00;;;;4863841;29;20082;-68
2024/03/08 07:59:13;;;;;;;27.70;16.55;;;;;5.90;98071.00;;;;5183577;24;20050;-67
2024/03/08 08:01:41;;;;;;;29.25;17.00;;;;;5.90;98068.00;;;;4844395;29;20048;-67
2024/03/08 08:04:12;;;;;;;25.08;15.90;;;;;5.90;98065.00;;;;4855836;29;20083;-67
2024/03/08 08:06:41;;;;;;;24.98;16.40;;;;;5.80;98058.00;;;;4862053;29;20053;-65
2024/03/08 08:09:28;;;;;;;28.65;16.70;;;;;6.00;98053.00;;;;4860699;29;20053;-67
2024/03/08 08:11:55;;;;;;;28.38;16.70;;;;;6.10;98054.00;;;;4861839;29;20049;-66
2024/03/08 08:14:21;;;;;;;27.08;16.38;;;;;6.20;98055.00;;;;4876520;29;20098;-66
2024/03/08 08:16:50;;;;;;;25.58;16.23;;;;;6.20;98058.00;;;;4861891;29;20063;-65
2024/03/08 08:19:17;;;;;;;25.95;16.10;;;;;6.30;98049.00;;;;4860674;29;20506;-65
2024/03/08 08:21:43;;;;;;;26.15;15.80;;;;;6.40;98048.00;;;;4860174;29;20053;-65
2024/03/08 08:24:10;;;;;;;29.48;17.95;;;;;6.30;98044.00;;;;4860635;29;20045;-67
2024/03/08 08:26:37;;;;;;;26.23;15.63;;;;;6.40;98045.00;;;;4860506;29;20056;-65
2024/03/08 08:29:07;;;;;;;25.90;14.93;;;;;6.30;98038.00;;;;4861591;29;20471;-67
2024/03/08 08:31:33;;;;;;;24.00;14.98;;;;;6.40;98033.00;;;;4860124;29;20049;-67
2024/03/08 08:34:00;;;;;;;24.00;15.73;;;;;6.40;98029.00;;;;4861448;29;20132;-67
2024/03/08 08:36:29;;;;;;;25.40;16.05;;;;;6.50;98027.00;;;;4860572;29;20574;-67
2024/03/08 08:38:58;;;;;;;24.58;15.52;;;;;6.70;98030.00;;;;4861304;29;20049;-67
2024/03/08 08:41:25;;;;;;;23.83;15.93;;;;;6.90;98033.00;;;;4861337;29;20105;-67
2024/03/08 08:43:51;;;;;;;25.83;16.05;;;;;7.00;98032.00;;;;4860137;29;20132;-67
2024/03/08 08:46:35;;;;;;;25.98;16.23;;;;;7.10;98033.00;;;;4861383;29;20573;-67
2024/03/08 08:49:08;;;;;;;25.50;15.73;;;;;7.10;98031.00;;;;4861372;29;20046;-68
2024/03/08 08:51:35;;;;;;;23.15;15.23;;;;;7.10;98029.00;;;;4860462;29;20054;-67
2024/03/08 08:54:02;;;;;;;25.80;15.10;;;;;7.10;98039.00;;;;4861175;29;20438;-68
2024/03/08 08:56:28;;;;;;;26.98;18.30;;;;;7.00;98018.00;;;;4859830;29;20500;-68
2024/03/08 08:58:55;;;;;;;27.45;17.33;;;;;7.00;98022.00;;;;4860601;29;20110;-68
2024/03/08 09:01:22;;;;;;;22.73;14.32;;;;;7.10;98021.00;;;;4860679;29;20109;-68
2024/03/08 09:03:50;;;;;;;24.55;16.58;;;;;7.30;98027.00;;;;4871895;29;20057;-68
2024/03/08 09:06:16;;;;;;;24.15;15.70;;;;;7.50;98023.00;;;;4861167;29;20050;-67
2024/03/08 09:08:46;;;;;;;26.33;16.08;;;;;7.30;98010.00;;;;4859574;29;20058;-67
2024/03/08 09:11:12;;;;;;;26.10;16.85;;;;;7.40;98016.00;;;;4860875;29;20077;-68
2024/03/08 09:13:39;;;;;;;26.77;17.25;;;;;7.50;98021.00;;;;4859565;29;20598;-68
2024/03/08 09:16:06;;;;;;;23.23;15.60;;;;;7.50;98025.00;;;;4875117;29;20171;-68
2024/03/08 09:18:33;;;;;;;23.30;15.60;;;;;7.40;98021.00;;;;4860668;29;20059;-68
2024/03/08 09:20:59;;;;;;;25.20;16.60;;;;;7.50;98017.00;;;;4859155;29;20058;-68
2024/03/08 09:23:30;;;;;;;26.63;16.83;;;;;7.50;98010.00;;;;4859270;29;20079;-68
2024/03/08 09:26:01;;;;;;;27.27;17.80;;;;;7.60;98012.00;;;;4860646;29;20566;-68
2024/03/08 09:28:28;;;;;;;25.13;15.85;;;;;7.70;98022.00;;;;4860373;29;20414;-68
2024/03/08 09:30:55;;;;;;;25.83;16.55;;;;;7.60;98008.00;;;;4859176;29;20049;-68
2024/03/08 09:33:27;;;;;;;27.30;16.25;;;;;7.50;98005.00;;;;4860504;29;20053;-68
2024/03/08 09:35:53;;;;;;;23.00;16.08;;;;;7.80;98000.00;;;;4859540;29;20045;-67
2024/03/08 09:38:20;;;;;;;25.15;17.05;;;;;7.70;98001.00;;;;4859280;29;20053;-68
2024/03/08 09:40:48;;;;;;;27.48;17.38;;;;;7.70;97994.00;;;;4858971;29;20071;-67
2024/03/08 09:43:14;;;;;;;27.65;16.75;;;;;8.00;97989.00;;;;4860454;29;20049;-67
2024/03/08 09:45:42;;;;;;;40.75;17.17;;;;;8.20;97993.00;;;;4859348;29;20049;-67
2024/03/08 09:48:12;;;;;;;24.38;15.82;;;;;8.30;97986.00;;;;4860411;29;20625;-68
2024/03/08 09:50:41;;;;;;;24.73;15.93;;;;;8.20;97987.00;;;;4860529;29;20068;-68
2024/03/08 09:53:11;;;;;;;25.40;15.43;;;;;8.40;97985.00;;;;4860413;29;20501;-68
2024/03/08 09:55:42;;;;;;;22.52;14.95;;;;;8.30;97986.00;;;;4860575;29;20041;-67
2024/03/08 09:59:21;;;;;;;26.65;17.45;;;;;8.20;97971.00;;;;4860297;29;20462;-68
2024/03/08 10:01:06;;;;;;;22.73;15.68;;;;;8.40;97971.00;;;;4862885;29;20061;-68
2024/03/08 10:03:34;;;;;;;23.02;15.15;;;;;8.70;97975.00;;;;4873706;29;20379;-68
2024/03/08 10:06:01;;;;;;;23.13;14.77;;;;;8.70;97975.00;;;;4860333;29;20482;-68
2024/03/08 10:08:31;;;;;;;23.70;15.95;;;;;8.90;97965.00;;;;4859164;29;20440;-66
2024/03/08 10:10:58;;;;;;;22.42;15.18;;;;;9.10;97962.00;;;;4860343;29;20049;-66
2024/03/08 10:13:29;;;;;;;22.52;15.65;;;;;9.20;97963.00;;;;4859701;29;20061;-66
2024/03/08 10:15:55;;;;;;;24.75;16.02;;;;;9.30;97967.00;;;;4874733;29;20073;-66
2024/03/08 10:18:22;;;;;;;24.48;15.48;;;;;9.30;97959.00;;;;4859120;29;20049;-66
2024/03/08 10:21:05;;;;;;;22.40;15.50;;;;;9.10;97964.00;;;;4860218;29;20140;-65
2024/03/08 10:23:33;;;;;;;25.73;16.77;;;;;8.90;97952.00;;;;4860142;29;20057;-64
2024/03/08 10:26:09;;;;;;;23.98;15.35;;;;;8.90;97953.00;;;;4860247;29;20427;-65
2024/03/08 10:28:36;;;;;;;27.25;16.77;;;;;8.90;97953.00;;;;4859846;29;20124;-66
2024/03/08 10:31:03;;;;;;;26.90;17.05;;;;;8.80;97950.00;;;;4859524;29;20132;-66
2024/03/08 10:33:30;;;;;;;23.85;15.85;;;;;9.00;97962.00;;;;4858463;29;20045;-65
2024/03/08 10:35:57;;;;;;;23.10;15.10;;;;;9.10;97957.00;;;;4859806;29;20041;-65
2024/03/08 10:38:26;;;;;;;25.45;17.17;;;;;9.10;97955.00;;;;4858531;29;20092;-66
2024/03/08 10:40:54;;;;;;;24.35;16.60;;;;;9.10;97947.00;;;;4874094;29;20402;-65
2024/03/08 10:43:25;;;;;;;25.05;16.00;;;;;9.30;97942.00;;;;4858302;29;20426;-65
2024/03/08 10:46:08;;;;;;;24.45;15.27;;;;;9.40;97946.00;;;;4858509;29;20080;-66
2024/03/08 10:48:49;;;;;;;24.17;15.90;;;;;9.40;97943.00;;;;4858619;29;20045;-66
2024/03/08 10:51:16;;;;;;;24.38;15.55;;;;;9.30;97943.00;;;;4859535;29;20052;-66
2024/03/08 10:53:46;;;;;;;24.48;15.25;;;;;9.10;97932.00;;;;4859500;29;20081;-66
2024/03/08 10:56:14;;;;;;;23.45;14.95;;;;;8.80;97941.00;;;;4858365;29;20145;-65
2024/03/08 10:58:44;;;;;;;23.13;15.90;;;;;8.70;97938.00;;;;4859249;29;20136;-65
2024/03/08 11:01:11;;;;;;;26.13;17.02;;;;;8.70;97939.00;;;;4857736;29;20053;-66
2024/03/08 11:03:44;;;;;;;22.40;15.95;;;;;8.90;97940.00;;;;4859419;29;20052;-64
2024/03/08 11:06:22;;;;;;;23.08;16.60;;;;;8.90;97932.00;;;;4859381;29;20395;-64
2024/03/08 11:08:50;;;;;;;27.48;17.08;;;;;8.80;97933.00;;;;4858058;29;20050;-64
2024/03/08 11:11:27;;;;;;;26.05;15.15;;;;;8.80;97931.00;;;;4859154;29;20045;-66
2024/03/08 11:13:59;;;;;;;23.25;15.75;;;;;8.80;97938.00;;;;4859701;29;20056;-66
2024/03/08 11:16:25;;;;;;;26.23;16.23;;;;;9.00;97932.00;;;;4846449;29;20045;-65
2024/03/08 11:19:05;;;;;;;26.48;16.65;;;;;9.20;97928.00;;;;4862712;29;20045;-65
2024/03/08 11:21:39;;;;;;;26.10;15.80;;;;;9.20;97930.00;;;;4861888;29;20076;-65
2024/03/08 11:24:07;;;;;;;22.90;14.95;;;;;9.30;97932.00;;;;4863735;29;20547;-65
2024/03/08 11:26:37;;;;;;;24.05;16.40;;;;;9.10;97928.00;;;;4862224;29;20124;-65
2024/03/08 11:29:42;;;;;;;23.70;16.77;;;;;9.20;97922.00;;;;4876763;29;20053;-66
2024/03/08 11:32:10;;;;;;;22.65;14.80;;;;;9.30;97931.00;;;;4861081;29;20065;-66
2024/03/08 11:34:45;;;;;;;22.25;15.00;;;;;9.40;97926.00;;;;4861508;29;20514;-66
2024/03/08 11:37:20;;;;;;;22.55;14.85;;;;;9.30;97936.00;;;;4861366;29;20117;-65
2024/03/08 11:39:52;;;;;;;21.63;14.93;;;;;9.10;97932.00;;;;4861358;29;20105;-64
2024/03/08 11:42:19;;;;;;;21.83;14.00;;;;;9.00;97936.00;;;;4861220;29;20081;-65
2024/03/08 11:44:47;;;;;;;22.67;15.95;;;;;9.00;97925.00;;;;4861485;29;20041;-64
2024/03/08 11:47:16;;;;;;;22.15;15.18;;;;;9.00;97923.00;;;;4862357;29;20546;-65
2024/03/08 11:49:44;;;;;;;24.38;15.25;;;;;9.10;97906.00;;;;4862648;29;20499;-65
2024/03/08 11:52:14;;;;;;;21.30;14.85;;;;;9.20;97910.00;;;;4861167;29;20050;-65
2024/03/08 11:54:47;;;;;;;23.25;15.88;;;;;9.40;97895.00;;;;4862291;29;20048;-65
2024/03/08 11:57:14;;;;;;;22.25;14.57;;;;;9.60;97904.00;;;;4862382;29;20450;-65
2024/03/08 11:59:40;;;;;;;20.35;14.02;;;;;9.70;97898.00;;;;4862028;29;20487;-66
2024/03/08 12:02:10;;;;;;;19.92;14.93;;;;;9.60;97890.00;;;;4876065;29;20154;-66
2024/03/08 12:04:37;;;;;;;22.20;14.50;;;;;9.60;97887.00;;;;4860859;29;20054;-65
2024/03/08 12:07:08;;;;;;;21.48;14.70;;;;;9.70;97895.00;;;;4862223;29;20042;-65
2024/03/08 12:09:36;;;;;;;23.20;15.50;;;;;9.90;97889.00;;;;4860917;29;20049;-64
2024/03/08 12:12:06;;;;;;;19.40;14.40;;;;;9.90;97894.00;;;;4860845;29;20080;-67
2024/03/08 12:14:34;;;;;;;22.80;15.63;;;;;10.10;97888.00;;;;4861944;29;20474;-65
2024/03/08 12:17:04;;;;;;;22.45;15.18;;;;;10.10;97883.00;;;;4862100;29;20101;-65
2024/03/08 12:19:31;;;;;;;19.38;13.77;;;;;10.30;97887.00;;;;4862372;29;20041;-66